sensor_id;sensor_type;location;lat;lon;timestamp;pressure;altitude;pressure_sealevel;temperature;humidity
70015;BME280;57358;51.094;6.760;2023-05-14T00:00:21;101352.53;;;10.72;100.00
70015;BME280;57358;51.094;6.760;2023-05-14T00:02:47;101314.72;;;10.55;100.00
70015;BME280;57358;51.094;6.760;2023-05-14T00:05:14;101340.91;;;10.57;100.00
70015;BME280;57358;51.094;6.760;2023-05-14T00:07:40;101339.38;;;10.51;100.00
70015;BME280;57358;51.094;6.760;2023-05-14T00:10:07;101270.09;;;10.13;100.00
70015;BME280;57358;51.094;6.760;2023-05-14T00:12:34;101302.56;;;10.32;100.00
70015;BME280;57358;51.094;6.760;2023-05-14T00:15:00;101278.09;;;10.10;100.00
70015;BME280;57358;51.094;6.760;2023-05-14T00:17:27;101265.53;;;9.96;100.00
70015;BME280;57358;51.094;6.760;2023-05-14T00:19:53;101322.16;;;10.22;100.00
70015;BME280;57358;51.094;6.760;2023-05-14T00:22:20;101235.06;;;9.71;100.00
70015;BME280;57358;51.094;6.760;2023-05-14T00:24:46;101102.94;;;8.90;100.00
70015;BME280;57358;51.094;6.760;2023-05-14T00:27:12;101306.88;;;10.11;100.00
70015;BME280;57358;51.094;6.760;2023-05-14T00:29:39;101268.06;;;9.77;100.00
70015;BME280;57358;51.094;6.760;2023-05-14T00:32:06;101221.97;;;9.49;100.00
70015;BME280;57358;51.094;6.760;2023-05-14T00:34:33;101297.00;;;9.96;100.00
70015;BME280;57358;51.094;6.760;2023-05-14T00:37:00;101316.78;;;10.05;100.00
70015;BME280;57358;51.094;6.760;2023-05-14T00:39:26;101312.44;;;10.04;100.00
70015;BME280;57358;51.094;6.760;2023-05-14T00:41:55;101306.78;;;9.92;100.00
70015;BME280;57358;51.094;6.760;2023-05-14T00:44:21;101304.22;;;9.91;100.00
70015;BME280;57358;51.094;6.760;2023-05-14T00:46:48;101304.94;;;9.94;100.00
70015;BME280;57358;51.094;6.760;2023-05-14T00:49:14;101302.44;;;9.91;100.00
70015;BME280;57358;51.094;6.760;2023-05-14T00:51:41;101304.03;;;9.95;100.00
70015;BME280;57358;51.094;6.760;2023-05-14T00:54:16;101294.81;;;9.85;100.00
70015;BME280;57358;51.094;6.760;2023-05-14T00:56:44;101297.13;;;9.93;100.00
70015;BME280;57358;51.094;6.760;2023-05-14T00:59:12;101294.63;;;9.90;100.00
70015;BME280;57358;51.094;6.760;2023-05-14T01:01:39;101293.72;;;9.91;100.00
70015;BME280;57358;51.094;6.760;2023-05-14T01:04:06;101302.56;;;9.88;100.00
70015;BME280;57358;51.094;6.760;2023-05-14T01:06:46;101302.63;;;9.87;100.00
70015;BME280;57358;51.094;6.760;2023-05-14T01:10:00;101305.31;;;9.85;100.00
70015;BME280;57358;51.094;6.760;2023-05-14T01:15:10;101242.59;;;9.35;100.00
70015;BME280;57358;51.094;6.760;2023-05-14T01:17:42;101299.81;;;9.69;100.00
70015;BME280;57358;51.094;6.760;2023-05-14T01:20:11;101262.53;;;9.39;100.00
70015;BME280;57358;51.094;6.760;2023-05-14T01:22:37;101270.88;;;9.27;100.00
70015;BME280;57358;51.094;6.760;2023-05-14T01:25:05;101297.16;;;9.47;100.00
70015;BME280;57358;51.094;6.760;2023-05-14T01:27:41;101295.50;;;9.45;100.00
70015;BME280;57358;51.094;6.760;2023-05-14T01:30:30;101294.66;;;9.44;100.00
70015;BME280;57358;51.094;6.760;2023-05-14T01:32:58;101297.34;;;9.43;100.00
70015;BME280;57358;51.094;6.760;2023-05-14T01:35:28;101273.06;;;9.37;100.00
70015;BME280;57358;51.094;6.760;2023-05-14T01:37:56;101258.00;;;9.21;100.00
70015;BME280;57358;51.094;6.760;2023-05-14T01:40:24;101202.41;;;8.90;100.00
70015;BME280;57358;51.094;6.760;2023-05-14T01:42:51;101282.56;;;9.40;100.00
70015;BME280;57358;51.094;6.760;2023-05-14T01:45:21;101295.75;;;9.38;100.00
70015;BME280;57358;51.094;6.760;2023-05-14T01:47:49;101246.09;;;9.12;100.00
70015;BME280;57358;51.094;6.760;2023-05-14T01:50:18;101290.56;;;9.37;100.00
70015;BME280;57358;51.094;6.760;2023-05-14T01:52:44;101287.00;;;9.38;100.00
70015;BME280;57358;51.094;6.760;2023-05-14T01:55:11;101287.13;;;9.35;100.00
70015;BME280;57358;51.094;6.760;2023-05-14T01:57:38;101286.41;;;9.31;100.00
70015;BME280;57358;51.094;6.760;2023-05-14T02:00:05;101211.38;;;8.83;100.00
70015;BME280;57358;51.094;6.760;2023-05-14T02:02:31;101280.63;;;9.22;100.00
70015;BME280;57358;51.094;6.760;2023-05-14T02:04:58;101261.06;;;9.08;100.00
70015;BME280;57358;51.094;6.760;2023-05-14T02:07:24;101272.25;;;9.12;100.00
70015;BME280;57358;51.094;6.760;2023-05-14T02:09:51;101274.09;;;9.10;100.00
70015;BME280;57358;51.094;6.760;2023-05-14T02:12:17;101280.34;;;9.06;100.00
70015;BME280;57358;51.094;6.760;2023-05-14T02:14:43;101289.22;;;9.02;100.00
70015;BME280;57358;51.094;6.760;2023-05-14T02:17:10;101181.00;;;8.29;100.00
70015;BME280;57358;51.094;6.760;2023-05-14T02:19:36;101292.25;;;8.91;100.00
70015;BME280;57358;51.094;6.760;2023-05-14T02:22:03;101239.44;;;8.54;100.00
70015;BME280;57358;51.094;6.760;2023-05-14T02:24:29;101224.97;;;8.44;100.00
70015;BME280;57358;51.094;6.760;2023-05-14T02:26:55;101236.25;;;8.46;100.00
70015;BME280;57358;51.094;6.760;2023-05-14T02:29:22;101236.28;;;8.45;100.00
70015;BME280;57358;51.094;6.760;2023-05-14T02:31:48;101276.66;;;8.63;100.00
70015;BME280;57358;51.094;6.760;2023-05-14T02:34:15;101213.44;;;8.23;100.00
70015;BME280;57358;51.094;6.760;2023-05-14T02:36:41;101282.88;;;8.60;100.00
70015;BME280;57358;51.094;6.760;2023-05-14T02:39:08;101106.06;;;7.52;100.00
70015;BME280;57358;51.094;6.760;2023-05-14T02:41:34;101238.53;;;8.29;100.00
70015;BME280;57358;51.094;6.760;2023-05-14T02:44:01;101276.91;;;8.55;100.00
70015;BME280;57358;51.094;6.760;2023-05-14T02:46:27;101291.81;;;8.53;100.00
70015;BME280;57358;51.094;6.760;2023-05-14T02:48:53;101290.22;;;8.49;100.00
70015;BME280;57358;51.094;6.760;2023-05-14T02:51:22;101297.53;;;8.37;100.00
70015;BME280;57358;51.094;6.760;2023-05-14T02:53:49;101290.41;;;8.43;100.00
70015;BME280;57358;51.094;6.760;2023-05-14T02:56:15;101300.88;;;8.43;100.00
70015;BME280;57358;51.094;6.760;2023-05-14T02:58:44;101302.66;;;8.41;100.00
70015;BME280;57358;51.094;6.760;2023-05-14T03:01:10;101302.72;;;8.39;100.00
70015;BME280;57358;51.094;6.760;2023-05-14T03:03:37;101308.84;;;8.38;100.00
70015;BME280;57358;51.094;6.760;2023-05-14T03:06:04;101298.44;;;8.36;100.00
70015;BME280;57358;51.094;6.760;2023-05-14T03:08:31;101275.66;;;8.13;100.00
70015;BME280;57358;51.094;6.760;2023-05-14T03:10:57;101300.38;;;8.30;100.00
70015;BME280;57358;51.094;6.760;2023-05-14T03:13:23;101296.91;;;8.29;100.00
70015;BME280;57358;51.094;6.760;2023-05-14T03:15:50;101298.72;;;8.27;100.00
70015;BME280;57358;51.094;6.760;2023-05-14T03:18:20;101299.78;;;8.22;100.00
70015;BME280;57358;51.094;6.760;2023-05-14T03:20:46;101139.28;;;7.21;100.00
70015;BME280;57358;51.094;6.760;2023-05-14T03:23:13;101292.53;;;8.03;100.00
70015;BME280;57358;51.094;6.760;2023-05-14T03:25:40;101304.47;;;8.12;100.00
70015;BME280;57358;51.094;6.760;2023-05-14T03:28:06;101302.84;;;8.08;100.00
70015;BME280;57358;51.094;6.760;2023-05-14T03:30:33;101302.84;;;8.08;100.00
70015;BME280;57358;51.094;6.760;2023-05-14T03:32:59;101309.03;;;8.05;100.00
70015;BME280;57358;51.094;6.760;2023-05-14T03:35:25;101298.69;;;8.02;100.00
70015;BME280;57358;51.094;6.760;2023-05-14T03:37:52;101302.22;;;7.99;100.00
70015;BME280;57358;51.094;6.760;2023-05-14T03:40:18;101220.25;;;7.47;100.00
70015;BME280;57358;51.094;6.760;2023-05-14T03:42:45;101239.16;;;7.55;100.00
70015;BME280;57358;51.094;6.760;2023-05-14T03:45:11;101292.84;;;7.94;100.00
70015;BME280;57358;51.094;6.760;2023-05-14T03:47:37;101279.69;;;7.69;100.00
70015;BME280;57358;51.094;6.760;2023-05-14T03:50:05;101222.00;;;7.48;100.00
70015;BME280;57358;51.094;6.760;2023-05-14T03:52:31;101306.41;;;8.05;100.00
70015;BME280;57358;51.094;6.760;2023-05-14T03:54:58;101304.66;;;8.06;100.00
70015;BME280;57358;51.094;6.760;2023-05-14T03:57:24;101309.72;;;8.12;100.00
70015;BME280;57358;51.094;6.760;2023-05-14T03:59:50;101294.25;;;8.04;100.00
70015;BME280;57358;51.094;6.760;2023-05-14T04:02:17;101276.59;;;7.84;100.00
70015;BME280;57358;51.094;6.760;2023-05-14T04:04:44;101322.59;;;8.18;100.00
70015;BME280;57358;51.094;6.760;2023-05-14T04:07:10;101327.66;;;8.23;100.00
70015;BME280;57358;51.094;6.760;2023-05-14T04:09:36;101315.94;;;8.34;100.00
70015;BME280;57358;51.094;6.760;2023-05-14T04:12:03;101286.59;;;8.26;100.00
70015;BME280;57358;51.094;6.760;2023-05-14T04:14:30;101320.13;;;8.40;100.00
70015;BME280;57358;51.094;6.760;2023-05-14T04:16:56;101318.34;;;8.41;100.00
70015;BME280;57358;51.094;6.760;2023-05-14T04:19:25;101292.63;;;8.55;100.00
70015;BME280;57358;51.094;6.760;2023-05-14T04:21:51;101287.84;;;8.91;100.00
70015;BME280;57358;51.094;6.760;2023-05-14T04:24:18;101239.34;;;9.06;100.00
70015;BME280;57358;51.094;6.760;2023-05-14T04:26:44;101315.69;;;9.88;100.00
70015;BME280;57358;51.094;6.760;2023-05-14T04:29:10;101136.00;;;9.15;100.00
70015;BME280;57358;51.094;6.760;2023-05-14T04:31:37;101270.94;;;10.13;100.00
70015;BME280;57358;51.094;6.760;2023-05-14T04:34:03;101322.47;;;10.79;100.00
70015;BME280;57358;51.094;6.760;2023-05-14T04:36:30;101275.44;;;10.93;100.00
70015;BME280;57358;51.094;6.760;2023-05-14T04:38:56;101259.72;;;11.31;100.00
70015;BME280;57358;51.094;6.760;2023-05-14T04:41:23;101299.28;;;11.85;100.00
70015;BME280;57358;51.094;6.760;2023-05-14T04:43:49;101294.66;;;12.27;100.00
70015;BME280;57358;51.094;6.760;2023-05-14T04:46:16;101268.56;;;12.40;100.00
70015;BME280;57358;51.094;6.760;2023-05-14T04:48:42;101282.50;;;12.92;100.00
70015;BME280;57358;51.094;6.760;2023-05-14T04:51:09;101194.63;;;12.77;100.00
70015;BME280;57358;51.094;6.760;2023-05-14T04:53:35;101282.72;;;13.54;100.00
70015;BME280;57358;51.094;6.760;2023-05-14T04:56:01;101202.69;;;13.55;100.00
70015;BME280;57358;51.094;6.760;2023-05-14T04:58:28;101246.78;;;14.00;100.00
70015;BME280;57358;51.094;6.760;2023-05-14T05:00:59;101200.63;;;13.45;94.41
70015;BME280;57358;51.094;6.760;2023-05-14T05:03:27;101187.66;;;13.88;90.84
70015;BME280;57358;51.094;6.760;2023-05-14T05:05:53;101114.63;;;13.88;89.05
70015;BME280;57358;51.094;6.760;2023-05-14T05:08:20;101116.53;;;14.15;86.68
70015;BME280;57358;51.094;6.760;2023-05-14T05:10:46;101156.00;;;14.61;84.69
70015;BME280;57358;51.094;6.760;2023-05-14T05:13:13;101132.19;;;14.18;83.73
70015;BME280;57358;51.094;6.760;2023-05-14T05:15:40;101147.28;;;14.16;84.52
70015;BME280;57358;51.094;6.760;2023-05-14T05:18:06;101155.97;;;14.32;85.61
70015;BME280;57358;51.094;6.760;2023-05-14T05:20:33;101056.19;;;13.80;83.99
70015;BME280;57358;51.094;6.760;2023-05-14T05:22:59;101139.38;;;14.45;83.71
70015;BME280;57358;51.094;6.760;2023-05-14T05:25:26;101144.75;;;14.86;84.26
70015;BME280;57358;51.094;6.760;2023-05-14T05:27:52;101114.69;;;14.74;83.04
70015;BME280;57358;51.094;6.760;2023-05-14T05:30:19;101100.19;;;14.94;83.15
70015;BME280;57358;51.094;6.760;2023-05-14T05:32:45;101112.53;;;15.08;81.96
70015;BME280;57358;51.094;6.760;2023-05-14T05:35:11;101055.84;;;14.85;81.98
70015;BME280;57358;51.094;6.760;2023-05-14T05:37:38;101092.88;;;14.71;82.38
70015;BME280;57358;51.094;6.760;2023-05-14T05:40:05;101082.59;;;14.09;82.79
70015;BME280;57358;51.094;6.760;2023-05-14T05:42:32;101042.25;;;13.33;84.71
70015;BME280;57358;51.094;6.760;2023-05-14T05:44:58;101102.69;;;13.36;86.94
70015;BME280;57358;51.094;6.760;2023-05-14T05:47:24;101089.09;;;13.12;88.64
70015;BME280;57358;51.094;6.760;2023-05-14T05:49:51;101139.44;;;13.70;89.51
70015;BME280;57358;51.094;6.760;2023-05-14T05:52:19;101141.63;;;14.08;90.07
70015;BME280;57358;51.094;6.760;2023-05-14T05:54:45;101148.28;;;14.58;89.74
70015;BME280;57358;51.094;6.760;2023-05-14T05:57:11;101130.09;;;14.95;86.90
70015;BME280;57358;51.094;6.760;2023-05-14T05:59:38;101118.91;;;15.46;84.50
70015;BME280;57358;51.094;6.760;2023-05-14T06:02:04;101070.72;;;15.68;82.42
70015;BME280;57358;51.094;6.760;2023-05-14T06:04:31;101065.47;;;16.06;80.18
70015;BME280;57358;51.094;6.760;2023-05-14T06:06:58;101089.41;;;16.80;77.39
70015;BME280;57358;51.094;6.760;2023-05-14T06:09:24;100973.75;;;15.67;75.78
70015;BME280;57358;51.094;6.760;2023-05-14T06:11:50;101018.72;;;15.67;76.42
70015;BME280;57358;51.094;6.760;2023-05-14T06:14:17;100984.66;;;14.96;77.31
70015;BME280;57358;51.094;6.760;2023-05-14T06:16:43;100988.19;;;14.55;80.55
70015;BME280;57358;51.094;6.760;2023-05-14T06:19:10;101011.22;;;14.53;81.23
70015;BME280;57358;51.094;6.760;2023-05-14T06:21:36;101088.69;;;14.81;83.30
70015;BME280;57358;51.094;6.760;2023-05-14T06:24:03;101089.97;;;14.61;84.47
70015;BME280;57358;51.094;6.760;2023-05-14T06:26:30;101110.31;;;14.30;86.06
70015;BME280;57358;51.094;6.760;2023-05-14T06:28:56;101122.47;;;14.19;88.51
70015;BME280;57358;51.094;6.760;2023-05-14T06:31:22;101106.19;;;14.12;89.77
70015;BME280;57358;51.094;6.760;2023-05-14T06:33:49;101137.09;;;14.24;90.91
70015;BME280;57358;51.094;6.760;2023-05-14T06:36:15;101160.88;;;14.53;90.97
70015;BME280;57358;51.094;6.760;2023-05-14T06:38:42;101159.50;;;14.76;91.15
70015;BME280;57358;51.094;6.760;2023-05-14T06:41:08;101149.38;;;14.83;89.40
70015;BME280;57358;51.094;6.760;2023-05-14T06:43:34;101158.91;;;15.00;89.89
70015;BME280;57358;51.094;6.760;2023-05-14T06:46:01;101150.84;;;15.01;88.52
70015;BME280;57358;51.094;6.760;2023-05-14T06:48:27;101144.59;;;15.16;87.40
70015;BME280;57358;51.094;6.760;2023-05-14T06:50:55;101150.84;;;15.15;88.64
70015;BME280;57358;51.094;6.760;2023-05-14T06:53:21;101148.16;;;15.30;88.75
70015;BME280;57358;51.094;6.760;2023-05-14T06:55:48;101069.47;;;15.06;87.89
70015;BME280;57358;51.094;6.760;2023-05-14T06:58:14;101104.13;;;15.29;86.73
70015;BME280;57358;51.094;6.760;2023-05-14T07:00:41;101097.84;;;15.17;86.43
70015;BME280;57358;51.094;6.760;2023-05-14T07:03:07;101125.06;;;15.59;86.85
70015;BME280;57358;51.094;6.760;2023-05-14T07:05:34;101056.84;;;14.97;85.94
70015;BME280;57358;51.094;6.760;2023-05-14T07:08:00;101097.69;;;15.33;86.52
70015;BME280;57358;51.094;6.760;2023-05-14T07:10:27;101157.94;;;15.42;86.55
70015;BME280;57358;51.094;6.760;2023-05-14T07:12:53;101133.94;;;15.72;86.66
70015;BME280;57358;51.094;6.760;2023-05-14T07:15:20;101064.63;;;15.40;86.07
70015;BME280;57358;51.094;6.760;2023-05-14T07:17:47;101128.69;;;15.58;87.07
70015;BME280;57358;51.094;6.760;2023-05-14T07:20:13;101136.16;;;15.91;87.19
70015;BME280;57358;51.094;6.760;2023-05-14T07:22:40;101125.38;;;15.94;84.69
70015;BME280;57358;51.094;6.760;2023-05-14T07:25:06;101082.88;;;15.70;84.60
70015;BME280;57358;51.094;6.760;2023-05-14T07:27:33;101107.19;;;16.03;82.97
70015;BME280;57358;51.094;6.760;2023-05-14T07:29:59;101088.75;;;16.14;82.60
70015;BME280;57358;51.094;6.760;2023-05-14T07:32:26;101082.06;;;16.21;81.42
70015;BME280;57358;51.094;6.760;2023-05-14T07:34:52;101085.44;;;16.49;79.92
70015;BME280;57358;51.094;6.760;2023-05-14T07:37:19;101082.44;;;16.66;79.29
70015;BME280;57358;51.094;6.760;2023-05-14T07:39:49;101080.06;;;16.87;79.42
70015;BME280;57358;51.094;6.760;2023-05-14T07:42:16;101070.44;;;17.10;77.53
70015;BME280;57358;51.094;6.760;2023-05-14T07:45:00;100989.50;;;16.81;74.96
70015;BME280;57358;51.094;6.760;2023-05-14T07:47:28;101018.03;;;17.14;73.96
70015;BME280;57358;51.094;6.760;2023-05-14T07:49:55;100953.06;;;16.84;73.33
70015;BME280;57358;51.094;6.760;2023-05-14T07:52:22;100979.75;;;17.05;72.69
70015;BME280;57358;51.094;6.760;2023-05-14T07:54:50;100963.47;;;16.99;72.58
70015;BME280;57358;51.094;6.760;2023-05-14T07:57:18;100985.09;;;17.17;72.13
70015;BME280;57358;51.094;6.760;2023-05-14T07:59:44;100945.91;;;17.09;72.19
70015;BME280;57358;51.094;6.760;2023-05-14T08:02:11;100947.78;;;17.42;70.63
70015;BME280;57358;51.094;6.760;2023-05-14T08:04:38;100862.47;;;16.90;69.39
70015;BME280;57358;51.094;6.760;2023-05-14T08:07:05;100886.38;;;17.13;68.25
70015;BME280;57358;51.094;6.760;2023-05-14T08:09:33;100931.41;;;17.48;68.79
70015;BME280;57358;51.094;6.760;2023-05-14T08:11:59;100910.41;;;17.45;69.06
70015;BME280;57358;51.094;6.760;2023-05-14T08:14:26;100980.31;;;17.91;70.56
70015;BME280;57358;51.094;6.760;2023-05-14T08:16:53;100983.06;;;18.23;70.07
70015;BME280;57358;51.094;6.760;2023-05-14T08:19:20;100875.91;;;17.79;66.88
70015;BME280;57358;51.094;6.760;2023-05-14T08:21:46;100866.00;;;17.81;67.39
70015;BME280;57358;51.094;6.760;2023-05-14T08:24:13;100878.13;;;18.29;66.08
70015;BME280;57358;51.094;6.760;2023-05-14T08:26:40;100849.44;;;18.11;67.38
70015;BME280;57358;51.094;6.760;2023-05-14T08:29:07;100959.88;;;18.80;69.11
70015;BME280;57358;51.094;6.760;2023-05-14T08:31:36;100913.19;;;18.87;67.36
70015;BME280;57358;51.094;6.760;2023-05-14T08:34:02;100804.84;;;18.26;67.28
70015;BME280;57358;51.094;6.760;2023-05-14T08:36:28;100918.78;;;19.05;68.06
70015;BME280;57358;51.094;6.760;2023-05-14T08:38:55;100923.69;;;19.10;67.77
70015;BME280;57358;51.094;6.760;2023-05-14T08:41:22;100866.22;;;18.77;66.82
70015;BME280;57358;51.094;6.760;2023-05-14T08:46:25;100678.84;;;17.43;64.78
70015;BME280;57358;51.094;6.760;2023-05-14T08:49:20;100908.28;;;18.28;69.11
70015;BME280;57358;51.094;6.760;2023-05-14T08:51:50;100939.94;;;18.42;70.42
70015;BME280;57358;51.094;6.760;2023-05-14T08:54:16;100923.47;;;18.48;69.92
70015;BME280;57358;51.094;6.760;2023-05-14T08:56:44;100892.25;;;18.62;68.48
70015;BME280;57358;51.094;6.760;2023-05-14T08:59:15;100870.34;;;18.69;67.00
70015;BME280;57358;51.094;6.760;2023-05-14T09:01:46;100803.63;;;18.51;64.77
70015;BME280;57358;51.094;6.760;2023-05-14T09:04:15;100769.44;;;18.68;62.87
70015;BME280;57358;51.094;6.760;2023-05-14T09:06:44;100712.47;;;18.82;61.06
70015;BME280;57358;51.094;6.760;2023-05-14T09:09:13;100650.69;;;18.68;60.31
70015;BME280;57358;51.094;6.760;2023-05-14T09:11:50;100716.13;;;19.31;59.96
70015;BME280;57358;51.094;6.760;2023-05-14T09:14:17;100711.56;;;19.02;60.57
70015;BME280;57358;51.094;6.760;2023-05-14T09:16:46;100614.38;;;18.58;59.59
70015;BME280;57358;51.094;6.760;2023-05-14T09:19:13;100652.41;;;18.48;59.20
70015;BME280;57358;51.094;6.760;2023-05-14T09:21:43;100754.47;;;19.19;60.09
70015;BME280;57358;51.094;6.760;2023-05-14T09:24:21;100738.66;;;19.17;59.88
70015;BME280;57358;51.094;6.760;2023-05-14T09:26:49;100666.81;;;19.17;59.07
70015;BME280;57358;51.094;6.760;2023-05-14T09:29:16;100557.72;;;19.07;56.64
70015;BME280;57358;51.094;6.760;2023-05-14T09:31:43;100680.75;;;19.69;57.36
70015;BME280;57358;51.094;6.760;2023-05-14T09:34:10;100737.88;;;19.46;59.25
70015;BME280;57358;51.094;6.760;2023-05-14T09:36:36;100766.28;;;19.86;58.77
70015;BME280;57358;51.094;6.760;2023-05-14T09:39:03;100765.56;;;19.84;59.06
70015;BME280;57358;51.094;6.760;2023-05-14T09:41:30;100771.91;;;20.22;58.49
70015;BME280;57358;51.094;6.760;2023-05-14T09:43:56;100730.22;;;20.60;56.48
70015;BME280;57358;51.094;6.760;2023-05-14T09:46:23;100755.81;;;20.80;56.39
70015;BME280;57358;51.094;6.760;2023-05-14T09:48:55;100707.25;;;20.20;57.38
70015;BME280;57358;51.094;6.760;2023-05-14T09:51:22;100777.91;;;20.53;57.13
70015;BME280;57358;51.094;6.760;2023-05-14T09:53:51;100728.44;;;20.21;57.00
70015;BME280;57358;51.094;6.760;2023-05-14T09:56:18;100770.22;;;20.01;57.87
70015;BME280;57358;51.094;6.760;2023-05-14T09:58:45;100831.50;;;20.40;57.60
70015;BME280;57358;51.094;6.760;2023-05-14T10:01:12;100708.09;;;19.71;57.17
70015;BME280;57358;51.094;6.760;2023-05-14T10:03:40;100782.00;;;20.38;57.12
70015;BME280;57358;51.094;6.760;2023-05-14T10:06:06;100754.78;;;20.24;56.65
70015;BME280;57358;51.094;6.760;2023-05-14T10:08:34;100606.03;;;19.32;56.27
70015;BME280;57358;51.094;6.760;2023-05-14T10:11:07;100801.28;;;20.88;55.43
70015;BME280;57358;51.094;6.760;2023-05-14T10:13:41;100720.66;;;20.47;55.93
70015;BME280;57358;51.094;6.760;2023-05-14T10:16:18;100810.59;;;21.22;55.28
70015;BME280;57358;51.094;6.760;2023-05-14T10:18:51;100802.72;;;21.20;55.76
70015;BME280;57358;51.094;6.760;2023-05-14T10:21:21;100822.84;;;21.52;55.38
70015;BME280;57358;51.094;6.760;2023-05-14T10:23:49;100766.75;;;21.24;54.68
70015;BME280;57358;51.094;6.760;2023-05-14T10:26:16;100724.59;;;21.00;54.35
70015;BME280;57358;51.094;6.760;2023-05-14T10:28:43;100791.81;;;21.14;55.69
70015;BME280;57358;51.094;6.760;2023-05-14T10:31:11;100835.47;;;21.60;55.35
70015;BME280;57358;51.094;6.760;2023-05-14T10:33:48;100748.69;;;20.81;55.39
70015;BME280;57358;51.094;6.760;2023-05-14T10:36:17;100825.03;;;20.82;56.90
70015;BME280;57358;51.094;6.760;2023-05-14T10:38:43;100815.78;;;20.86;56.56
70015;BME280;57358;51.094;6.760;2023-05-14T10:41:12;100725.53;;;20.71;55.35
70015;BME280;57358;51.094;6.760;2023-05-14T10:43:43;100704.94;;;20.64;54.25
70015;BME280;57358;51.094;6.760;2023-05-14T10:46:11;100674.94;;;20.32;54.15
70015;BME280;57358;51.094;6.760;2023-05-14T10:48:40;100741.88;;;20.59;54.95
70015;BME280;57358;51.094;6.760;2023-05-14T10:51:08;100763.00;;;20.80;54.70
70015;BME280;57358;51.094;6.760;2023-05-14T10:53:37;100753.59;;;20.85;54.37
70015;BME280;57358;51.094;6.760;2023-05-14T10:56:06;100710.91;;;20.85;53.76
70015;BME280;57358;51.094;6.760;2023-05-14T10:58:37;100770.06;;;21.08;54.94
70015;BME280;57358;51.094;6.760;2023-05-14T11:01:09;100711.56;;;21.25;53.23
70015;BME280;57358;51.094;6.760;2023-05-14T11:03:45;100791.88;;;22.41;52.49
70015;BME280;57358;51.094;6.760;2023-05-14T11:06:13;100756.38;;;22.83;50.87
70015;BME280;57358;51.094;6.760;2023-05-14T11:08:40;100605.41;;;22.51;48.86
70015;BME280;57358;51.094;6.760;2023-05-14T11:11:07;100706.72;;;23.15;49.43
70015;BME280;57358;51.094;6.760;2023-05-14T11:13:34;100613.44;;;22.51;48.99
70015;BME280;57358;51.094;6.760;2023-05-14T11:16:01;100659.00;;;21.53;51.20
70015;BME280;57358;51.094;6.760;2023-05-14T11:18:46;100640.38;;;21.16;52.48
70015;BME280;57358;51.094;6.760;2023-05-14T11:21:13;100599.28;;;20.53;53.54
70015;BME280;57358;51.094;6.760;2023-05-14T11:23:39;100714.47;;;21.77;52.02
70015;BME280;57358;51.094;6.760;2023-05-14T11:26:05;100664.66;;;22.12;49.28
70015;BME280;57358;51.094;6.760;2023-05-14T11:28:33;100543.84;;;22.08;46.85
70015;BME280;57358;51.094;6.760;2023-05-14T11:30:59;100588.31;;;22.36;47.28
70015;BME280;57358;51.094;6.760;2023-05-14T11:33:27;100583.50;;;22.47;47.07
70015;BME280;57358;51.094;6.760;2023-05-14T11:35:54;100603.84;;;22.14;47.76
70015;BME280;57358;51.094;6.760;2023-05-14T11:38:21;100549.97;;;22.01;47.15
70015;BME280;57358;51.094;6.760;2023-05-14T11:40:54;100614.66;;;22.04;48.54
70015;BME280;57358;51.094;6.760;2023-05-14T11:43:21;100621.84;;;22.30;48.71
70015;BME280;57358;51.094;6.760;2023-05-14T11:45:52;100560.88;;;22.07;47.80
70015;BME280;57358;51.094;6.760;2023-05-14T11:48:19;100504.88;;;21.27;49.17
70015;BME280;57358;51.094;6.760;2023-05-14T11:50:47;100558.22;;;21.81;48.02
70015;BME280;57358;51.094;6.760;2023-05-14T11:53:31;100553.03;;;21.80;48.09
70015;BME280;57358;51.094;6.760;2023-05-14T11:55:58;100520.41;;;21.68;47.05
70015;BME280;57358;51.094;6.760;2023-05-14T11:58:24;100463.16;;;21.26;46.67
70015;BME280;57358;51.094;6.760;2023-05-14T12:00:52;100551.94;;;21.46;48.23
70015;BME280;57358;51.094;6.760;2023-05-14T12:03:18;100545.56;;;21.83;46.54
70015;BME280;57358;51.094;6.760;2023-05-14T12:05:56;100447.66;;;21.48;46.13
70015;BME280;57358;51.094;6.760;2023-05-14T12:08:30;100468.50;;;21.44;45.40
70015;BME280;57358;51.094;6.760;2023-05-14T12:10:58;100372.69;;;21.15;44.12
70015;BME280;57358;51.094;6.760;2023-05-14T12:13:26;100508.06;;;21.67;45.43
70015;BME280;57358;51.094;6.760;2023-05-14T12:15:55;100575.38;;;22.05;45.79
70015;BME280;57358;51.094;6.760;2023-05-14T12:18:27;100586.13;;;22.74;44.26
70015;BME280;57358;51.094;6.760;2023-05-14T12:20:54;100460.47;;;22.39;42.26
70015;BME280;57358;51.094;6.760;2023-05-14T12:23:28;100502.53;;;22.80;42.31
70015;BME280;57358;51.094;6.760;2023-05-14T12:26:01;100433.63;;;22.74;40.89
70015;BME280;57358;51.094;6.760;2023-05-14T12:28:28;100419.41;;;22.73;40.44
70015;BME280;57358;51.094;6.760;2023-05-14T12:30:55;100430.47;;;23.03;39.52
70015;BME280;57358;51.094;6.760;2023-05-14T12:33:22;100478.16;;;22.99;40.38
70015;BME280;57358;51.094;6.760;2023-05-14T12:35:49;100302.03;;;22.70;36.44
70015;BME280;57358;51.094;6.760;2023-05-14T12:38:15;100578.44;;;22.87;41.91
70015;BME280;57358;51.094;6.760;2023-05-14T12:40:42;100629.97;;;22.46;43.90
70015;BME280;57358;51.094;6.760;2023-05-14T12:43:08;100662.50;;;22.16;45.31
70015;BME280;57358;51.094;6.760;2023-05-14T12:45:35;100691.06;;;22.15;46.40
70015;BME280;57358;51.094;6.760;2023-05-14T12:48:01;100706.94;;;22.61;45.64
70015;BME280;57358;51.094;6.760;2023-05-14T12:50:28;100629.09;;;22.38;45.13
70015;BME280;57358;51.094;6.760;2023-05-14T12:52:54;100631.97;;;22.87;43.47
70015;BME280;57358;51.094;6.760;2023-05-14T12:55:21;100599.63;;;23.06;43.24
70015;BME280;57358;51.094;6.760;2023-05-14T12:57:47;100619.69;;;23.02;42.75